sensor_id;sensor_type;location;lat;lon;timestamp;temperature;humidity
74661;SHT31;63191;39.566;2.654;2023-08-20T00:00:51;26.52;84.70
74661;SHT31;63191;39.566;2.654;2023-08-20T00:03:18;26.54;84.79
74661;SHT31;63191;39.566;2.654;2023-08-20T00:05:44;26.56;84.82
74661;SHT31;63191;39.566;2.654;2023-08-20T00:08:10;26.56;84.94
74661;SHT31;63191;39.566;2.654;2023-08-20T00:10:36;26.59;84.85
74661;SHT31;63191;39.566;2.654;2023-08-20T00:13:02;26.61;84.81
74661;SHT31;63191;39.566;2.654;2023-08-20T00:15:29;26.63;84.81
74661;SHT31;63191;39.566;2.654;2023-08-20T00:17:55;26.66;84.77
74661;SHT31;63191;39.566;2.654;2023-08-20T00:20:22;26.67;84.36
74661;SHT31;63191;39.566;2.654;2023-08-20T00:22:48;26.65;83.86
74661;SHT31;63191;39.566;2.654;2023-08-20T00:25:15;26.66;83.57
74661;SHT31;63191;39.566;2.654;2023-08-20T00:27:43;26.63;83.00
74661;SHT31;63191;39.566;2.654;2023-08-20T00:30:09;26.63;82.25
74661;SHT31;63191;39.566;2.654;2023-08-20T00:32:36;26.58;81.55
74661;SHT31;63191;39.566;2.654;2023-08-20T00:35:03;26.54;80.99
74661;SHT31;63191;39.566;2.654;2023-08-20T00:37:30;26.50;80.61
74661;SHT31;63191;39.566;2.654;2023-08-20T00:39:56;26.45;80.27
74661;SHT31;63191;39.566;2.654;2023-08-20T00:42:23;26.42;79.98
74661;SHT31;63191;39.566;2.654;2023-08-20T00:44:52;26.39;79.82
74661;SHT31;63191;39.566;2.654;2023-08-20T00:47:18;26.35;79.88
74661;SHT31;63191;39.566;2.654;2023-08-20T00:49:45;26.31;79.79
74661;SHT31;63191;39.566;2.654;2023-08-20T00:52:13;26.27;79.79
74661;SHT31;63191;39.566;2.654;2023-08-20T00:54:44;26.22;79.81
74661;SHT31;63191;39.566;2.654;2023-08-20T00:57:13;26.18;79.98
74661;SHT31;63191;39.566;2.654;2023-08-20T00:59:40;26.16;80.17
74661;SHT31;63191;39.566;2.654;2023-08-20T01:02:06;26.12;80.30
74661;SHT31;63191;39.566;2.654;2023-08-20T01:04:32;26.09;80.34
74661;SHT31;63191;39.566;2.654;2023-08-20T01:12:39;25.99;80.79
74661;SHT31;63191;39.566;2.654;2023-08-20T01:15:07;26.00;81.06
74661;SHT31;63191;39.566;2.654;2023-08-20T01:17:39;25.99;81.13
74661;SHT31;63191;39.566;2.654;2023-08-20T01:20:07;25.99;81.33
74661;SHT31;63191;39.566;2.654;2023-08-20T01:28:18;25.99;81.68
74661;SHT31;63191;39.566;2.654;2023-08-20T01:30:46;25.99;81.74
74661;SHT31;63191;39.566;2.654;2023-08-20T01:33:13;25.96;81.70
74661;SHT31;63191;39.566;2.654;2023-08-20T01:35:40;25.93;81.63
74661;SHT31;63191;39.566;2.654;2023-08-20T01:38:06;25.91;81.60
74661;SHT31;63191;39.566;2.654;2023-08-20T01:40:32;25.87;81.64
74661;SHT31;63191;39.566;2.654;2023-08-20T01:42:59;25.85;81.88
74661;SHT31;63191;39.566;2.654;2023-08-20T01:45:24;25.84;82.10
74661;SHT31;63191;39.566;2.654;2023-08-20T01:47:51;25.84;82.26
74661;SHT31;63191;39.566;2.654;2023-08-20T01:50:17;25.83;82.39
74661;SHT31;63191;39.566;2.654;2023-08-20T01:52:44;25.82;82.50
74661;SHT31;63191;39.566;2.654;2023-08-20T01:55:10;25.80;82.50
74661;SHT31;63191;39.566;2.654;2023-08-20T01:57:37;25.78;82.37
74661;SHT31;63191;39.566;2.654;2023-08-20T02:00:03;25.76;82.21
74661;SHT31;63191;39.566;2.654;2023-08-20T02:02:33;25.71;82.01
74661;SHT31;63191;39.566;2.654;2023-08-20T02:04:59;25.69;81.93
74661;SHT31;63191;39.566;2.654;2023-08-20T02:07:25;25.66;81.91
74661;SHT31;63191;39.566;2.654;2023-08-20T02:09:51;25.65;82.00
74661;SHT31;63191;39.566;2.654;2023-08-20T02:12:17;25.66;82.11
74661;SHT31;63191;39.566;2.654;2023-08-20T02:14:43;25.66;82.16
74661;SHT31;63191;39.566;2.654;2023-08-20T02:17:09;25.66;82.14
74661;SHT31;63191;39.566;2.654;2023-08-20T02:19:35;25.65;82.21
74661;SHT31;63191;39.566;2.654;2023-08-20T02:22:01;25.66;82.22
74661;SHT31;63191;39.566;2.654;2023-08-20T02:24:27;25.64;82.24
74661;SHT31;63191;39.566;2.654;2023-08-20T02:26:53;25.61;82.29
74661;SHT31;63191;39.566;2.654;2023-08-20T02:29:19;25.60;82.35
74661;SHT31;63191;39.566;2.654;2023-08-20T02:31:44;25.58;82.48
74661;SHT31;63191;39.566;2.654;2023-08-20T02:34:10;25.57;82.59
74661;SHT31;63191;39.566;2.654;2023-08-20T02:36:36;25.54;82.61
74661;SHT31;63191;39.566;2.654;2023-08-20T02:39:02;25.53;82.73
74661;SHT31;63191;39.566;2.654;2023-08-20T02:41:35;25.52;82.97
74661;SHT31;63191;39.566;2.654;2023-08-20T02:44:02;25.53;83.10
74661;SHT31;63191;39.566;2.654;2023-08-20T02:46:28;25.51;83.10
74661;SHT31;63191;39.566;2.654;2023-08-20T02:48:54;25.46;83.04
74661;SHT31;63191;39.566;2.654;2023-08-20T02:51:20;25.42;83.11
74661;SHT31;63191;39.566;2.654;2023-08-20T02:53:47;25.39;83.23
74661;SHT31;63191;39.566;2.654;2023-08-20T02:56:13;25.36;83.44
74661;SHT31;63191;39.566;2.654;2023-08-20T02:58:39;25.32;83.59
74661;SHT31;63191;39.566;2.654;2023-08-20T03:01:05;25.31;83.77
74661;SHT31;63191;39.566;2.654;2023-08-20T03:03:31;25.30;83.98
74661;SHT31;63191;39.566;2.654;2023-08-20T03:05:57;25.28;84.17
74661;SHT31;63191;39.566;2.654;2023-08-20T03:08:23;25.29;84.31
74661;SHT31;63191;39.566;2.654;2023-08-20T03:10:48;25.28;84.32
74661;SHT31;63191;39.566;2.654;2023-08-20T03:13:14;25.29;84.28
74661;SHT31;63191;39.566;2.654;2023-08-20T03:15:40;25.29;84.11
74661;SHT31;63191;39.566;2.654;2023-08-20T03:18:06;25.28;83.90
74661;SHT31;63191;39.566;2.654;2023-08-20T03:20:31;25.27;83.76
74661;SHT31;63191;39.566;2.654;2023-08-20T03:22:57;25.26;83.67
74661;SHT31;63191;39.566;2.654;2023-08-20T03:25:23;25.26;83.60
74661;SHT31;63191;39.566;2.654;2023-08-20T03:27:51;25.26;83.63
74661;SHT31;63191;39.566;2.654;2023-08-20T03:30:18;25.28;83.69
74661;SHT31;63191;39.566;2.654;2023-08-20T03:32:44;25.29;83.70
74661;SHT31;63191;39.566;2.654;2023-08-20T03:35:09;25.31;83.70
74661;SHT31;63191;39.566;2.654;2023-08-20T03:37:35;25.33;83.74
74661;SHT31;63191;39.566;2.654;2023-08-20T03:40:01;25.33;83.74
74661;SHT31;63191;39.566;2.654;2023-08-20T03:42:30;25.34;83.76
74661;SHT31;63191;39.566;2.654;2023-08-20T03:44:56;25.34;83.78
74661;SHT31;63191;39.566;2.654;2023-08-20T03:47:21;25.33;83.86
74661;SHT31;63191;39.566;2.654;2023-08-20T03:49:47;25.31;83.81
74661;SHT31;63191;39.566;2.654;2023-08-20T03:52:13;25.29;83.72
74661;SHT31;63191;39.566;2.654;2023-08-20T03:54:39;25.27;83.74
74661;SHT31;63191;39.566;2.654;2023-08-20T03:57:05;25.24;83.70
74661;SHT31;63191;39.566;2.654;2023-08-20T03:59:31;25.21;83.70
74661;SHT31;63191;39.566;2.654;2023-08-20T04:01:57;25.19;83.73
74661;SHT31;63191;39.566;2.654;2023-08-20T04:04:23;25.17;83.80
74661;SHT31;63191;39.566;2.654;2023-08-20T04:06:49;25.17;83.97
74661;SHT31;63191;39.566;2.654;2023-08-20T04:09:15;25.16;84.06
74661;SHT31;63191;39.566;2.654;2023-08-20T04:11:42;25.16;84.19
74661;SHT31;63191;39.566;2.654;2023-08-20T04:14:07;25.18;84.26
74661;SHT31;63191;39.566;2.654;2023-08-20T04:16:33;25.19;84.33
74661;SHT31;63191;39.566;2.654;2023-08-20T04:18:59;25.22;84.39
74661;SHT31;63191;39.566;2.654;2023-08-20T04:21:25;25.22;84.32
74661;SHT31;63191;39.566;2.654;2023-08-20T04:23:51;25.20;84.25
74661;SHT31;63191;39.566;2.654;2023-08-20T04:26:17;25.18;84.21
74661;SHT31;63191;39.566;2.654;2023-08-20T04:28:43;25.16;84.24
74661;SHT31;63191;39.566;2.654;2023-08-20T04:31:08;25.16;84.31
74661;SHT31;63191;39.566;2.654;2023-08-20T04:33:34;25.15;84.36
74661;SHT31;63191;39.566;2.654;2023-08-20T04:36:00;25.14;84.33
74661;SHT31;63191;39.566;2.654;2023-08-20T04:38:26;25.15;84.29
74661;SHT31;63191;39.566;2.654;2023-08-20T04:40:51;25.13;84.30
74661;SHT31;63191;39.566;2.654;2023-08-20T04:43:17;25.13;84.34
74661;SHT31;63191;39.566;2.654;2023-08-20T04:45:43;25.13;84.39
74661;SHT31;63191;39.566;2.654;2023-08-20T04:48:08;25.14;84.37
74661;SHT31;63191;39.566;2.654;2023-08-20T04:50:35;25.14;84.32
74661;SHT31;63191;39.566;2.654;2023-08-20T04:53:00;25.15;84.34
74661;SHT31;63191;39.566;2.654;2023-08-20T04:55:27;25.16;84.48
74661;SHT31;63191;39.566;2.654;2023-08-20T04:57:53;25.18;84.65
74661;SHT31;63191;39.566;2.654;2023-08-20T05:00:19;25.20;84.67
74661;SHT31;63191;39.566;2.654;2023-08-20T05:02:45;25.22;84.56
74661;SHT31;63191;39.566;2.654;2023-08-20T05:05:11;25.23;84.46
74661;SHT31;63191;39.566;2.654;2023-08-20T05:07:37;25.23;84.32
74661;SHT31;63191;39.566;2.654;2023-08-20T05:10:03;25.25;84.52
74661;SHT31;63191;39.566;2.654;2023-08-20T05:12:29;25.29;84.60
74661;SHT31;63191;39.566;2.654;2023-08-20T05:14:55;25.31;84.63
74661;SHT31;63191;39.566;2.654;2023-08-20T05:17:21;25.33;84.68
74661;SHT31;63191;39.566;2.654;2023-08-20T05:19:47;25.35;84.63
74661;SHT31;63191;39.566;2.654;2023-08-20T05:22:13;25.38;84.73
74661;SHT31;63191;39.566;2.654;2023-08-20T05:24:39;25.42;84.80
74661;SHT31;63191;39.566;2.654;2023-08-20T05:27:08;25.45;84.70
74661;SHT31;63191;39.566;2.654;2023-08-20T05:29:39;25.49;84.55
74661;SHT31;63191;39.566;2.654;2023-08-20T05:32:06;25.51;84.38
74661;SHT31;63191;39.566;2.654;2023-08-20T05:34:33;25.53;84.25
74661;SHT31;63191;39.566;2.654;2023-08-20T05:36:59;25.58;84.21
74661;SHT31;63191;39.566;2.654;2023-08-20T05:39:25;25.63;84.24
74661;SHT31;63191;39.566;2.654;2023-08-20T05:41:52;25.69;84.21
74661;SHT31;63191;39.566;2.654;2023-08-20T05:44:19;25.76;84.10
74661;SHT31;63191;39.566;2.654;2023-08-20T05:46:45;25.83;84.06
74661;SHT31;63191;39.566;2.654;2023-08-20T05:49:14;25.91;84.02
74661;SHT31;63191;39.566;2.654;2023-08-20T05:51:41;26.01;83.99
74661;SHT31;63191;39.566;2.654;2023-08-20T05:54:08;26.14;83.94
74661;SHT31;63191;39.566;2.654;2023-08-20T05:56:34;26.26;83.74
74661;SHT31;63191;39.566;2.654;2023-08-20T05:58:59;26.37;83.48
74661;SHT31;63191;39.566;2.654;2023-08-20T06:01:25;26.48;83.10
74661;SHT31;63191;39.566;2.654;2023-08-20T06:03:51;26.60;82.56
74661;SHT31;63191;39.566;2.654;2023-08-20T06:06:16;26.74;82.06
74661;SHT31;63191;39.566;2.654;2023-08-20T06:08:42;26.87;81.66
74661;SHT31;63191;39.566;2.654;2023-08-20T06:11:08;27.01;80.99
74661;SHT31;63191;39.566;2.654;2023-08-20T06:13:33;27.16;80.25
74661;SHT31;63191;39.566;2.654;2023-08-20T06:15:59;27.30;79.62
74661;SHT31;63191;39.566;2.654;2023-08-20T06:18:25;27.44;79.03
74661;SHT31;63191;39.566;2.654;2023-08-20T06:20:51;27.56;78.28
74661;SHT31;63191;39.566;2.654;2023-08-20T06:23:16;27.67;77.81
74661;SHT31;63191;39.566;2.654;2023-08-20T06:25:42;27.80;77.54
74661;SHT31;63191;39.566;2.654;2023-08-20T06:28:08;27.93;77.15
74661;SHT31;63191;39.566;2.654;2023-08-20T06:30:37;28.07;76.64
74661;SHT31;63191;39.566;2.654;2023-08-20T06:33:03;28.21;76.32
74661;SHT31;63191;39.566;2.654;2023-08-20T06:35:29;28.37;75.91
74661;SHT31;63191;39.566;2.654;2023-08-20T06:37:55;28.49;74.98
74661;SHT31;63191;39.566;2.654;2023-08-20T06:40:21;28.60;74.56
74661;SHT31;63191;39.566;2.654;2023-08-20T06:42:46;28.73;74.07
74661;SHT31;63191;39.566;2.654;2023-08-20T06:45:12;28.83;73.47
74661;SHT31;63191;39.566;2.654;2023-08-20T06:47:38;28.99;73.48
74661;SHT31;63191;39.566;2.654;2023-08-20T06:50:04;29.15;73.18
74661;SHT31;63191;39.566;2.654;2023-08-20T06:52:31;29.32;73.01
74661;SHT31;63191;39.566;2.654;2023-08-20T06:54:57;29.48;72.70
74661;SHT31;63191;39.566;2.654;2023-08-20T06:57:23;29.67;72.42
74661;SHT31;63191;39.566;2.654;2023-08-20T06:59:48;29.80;71.63
74661;SHT31;63191;39.566;2.654;2023-08-20T07:02:14;29.91;71.59
74661;SHT31;63191;39.566;2.654;2023-08-20T07:04:40;30.03;71.37
74661;SHT31;63191;39.566;2.654;2023-08-20T07:07:05;30.17;71.02
74661;SHT31;63191;39.566;2.654;2023-08-20T07:09:31;30.31;70.94
74661;SHT31;63191;39.566;2.654;2023-08-20T07:11:57;30.47;70.91
74661;SHT31;63191;39.566;2.654;2023-08-20T07:14:23;30.65;70.57
74661;SHT31;63191;39.566;2.654;2023-08-20T07:16:48;30.83;70.19
74661;SHT31;63191;39.566;2.654;2023-08-20T07:19:14;31.00;69.74
74661;SHT31;63191;39.566;2.654;2023-08-20T07:21:40;31.14;69.16
74661;SHT31;63191;39.566;2.654;2023-08-20T07:24:06;31.30;68.87
74661;SHT31;63191;39.566;2.654;2023-08-20T07:26:32;31.45;68.62
74661;SHT31;63191;39.566;2.654;2023-08-20T07:28:57;31.60;68.38
74661;SHT31;63191;39.566;2.654;2023-08-20T07:31:24;31.73;67.97
74661;SHT31;63191;39.566;2.654;2023-08-20T07:33:59;31.87;67.46
74661;SHT31;63191;39.566;2.654;2023-08-20T07:36:29;31.97;67.18
74661;SHT31;63191;39.566;2.654;2023-08-20T07:38:55;32.09;66.88
74661;SHT31;63191;39.566;2.654;2023-08-20T07:41:21;32.18;66.50
74661;SHT31;63191;39.566;2.654;2023-08-20T07:43:47;32.28;66.21
74661;SHT31;63191;39.566;2.654;2023-08-20T07:46:14;32.36;65.97
74661;SHT31;63191;39.566;2.654;2023-08-20T07:48:41;32.47;65.50
74661;SHT31;63191;39.566;2.654;2023-08-20T07:51:07;32.58;65.19
74661;SHT31;63191;39.566;2.654;2023-08-20T07:53:33;32.68;65.00
74661;SHT31;63191;39.566;2.654;2023-08-20T07:56:02;32.77;64.69
74661;SHT31;63191;39.566;2.654;2023-08-20T07:58:29;32.86;64.42
74661;SHT31;63191;39.566;2.654;2023-08-20T08:00:55;32.92;64.02
74661;SHT31;63191;39.566;2.654;2023-08-20T08:03:22;32.97;63.76
74661;SHT31;63191;39.566;2.654;2023-08-20T08:05:50;33.03;63.64
74661;SHT31;63191;39.566;2.654;2023-08-20T08:08:16;33.08;63.51
74661;SHT31;63191;39.566;2.654;2023-08-20T08:10:43;33.13;63.21
74661;SHT31;63191;39.566;2.654;2023-08-20T08:13:11;33.18;62.95
74661;SHT31;63191;39.566;2.654;2023-08-20T08:15:41;33.21;62.90
74661;SHT31;63191;39.566;2.654;2023-08-20T08:18:07;33.22;62.84
74661;SHT31;63191;39.566;2.654;2023-08-20T08:20:33;33.17;62.57
74661;SHT31;63191;39.566;2.654;2023-08-20T08:22:59;33.08;62.40
74661;SHT31;63191;39.566;2.654;2023-08-20T08:25:25;32.98;62.47
74661;SHT31;63191;39.566;2.654;2023-08-20T08:27:51;32.91;62.94
74661;SHT31;63191;39.566;2.654;2023-08-20T08:30:17;32.90;63.01
74661;SHT31;63191;39.566;2.654;2023-08-20T08:32:43;32.90;62.99
74661;SHT31;63191;39.566;2.654;2023-08-20T08:35:09;32.94;63.21
74661;SHT31;63191;39.566;2.654;2023-08-20T08:37:34;33.00;63.03
74661;SHT31;63191;39.566;2.654;2023-08-20T08:40:01;33.02;62.76
74661;SHT31;63191;39.566;2.654;2023-08-20T08:42:30;33.02;62.87
74661;SHT31;63191;39.566;2.654;2023-08-20T08:45:00;33.06;62.89
74661;SHT31;63191;39.566;2.654;2023-08-20T08:47:27;33.11;62.74
74661;SHT31;63191;39.566;2.654;2023-08-20T08:49:54;33.11;62.54
74661;SHT31;63191;39.566;2.654;2023-08-20T08:52:24;33.12;62.69
74661;SHT31;63191;39.566;2.654;2023-08-20T08:54:51;33.13;62.61
74661;SHT31;63191;39.566;2.654;2023-08-20T08:57:18;33.07;62.44
74661;SHT31;63191;39.566;2.654;2023-08-20T08:59:44;32.97;62.50
74661;SHT31;63191;39.566;2.654;2023-08-20T09:02:11;32.94;62.89
74661;SHT31;63191;39.566;2.654;2023-08-20T09:04:38;32.91;62.89
74661;SHT31;63191;39.566;2.654;2023-08-20T09:07:05;32.89;63.32
74661;SHT31;63191;39.566;2.654;2023-08-20T09:09:38;32.92;63.39
74661;SHT31;63191;39.566;2.654;2023-08-20T09:12:14;32.97;63.26
74661;SHT31;63191;39.566;2.654;2023-08-20T09:14:47;32.97;63.40
74661;SHT31;63191;39.566;2.654;2023-08-20T09:17:16;32.98;63.31
74661;SHT31;63191;39.566;2.654;2023-08-20T09:19:43;32.95;63.19
74661;SHT31;63191;39.566;2.654;2023-08-20T09:22:13;32.95;63.29
74661;SHT31;63191;39.566;2.654;2023-08-20T09:24:47;32.93;63.58
74661;SHT31;63191;39.566;2.654;2023-08-20T09:27:20;32.96;63.64
74661;SHT31;63191;39.566;2.654;2023-08-20T09:29:50;32.96;63.76
74661;SHT31;63191;39.566;2.654;2023-08-20T09:32:26;33.02;63.91
74661;SHT31;63191;39.566;2.654;2023-08-20T09:34:54;33.13;64.08
74661;SHT31;63191;39.566;2.654;2023-08-20T09:37:21;33.25;63.97
74661;SHT31;63191;39.566;2.654;2023-08-20T09:39:49;33.38;63.58
74661;SHT31;63191;39.566;2.654;2023-08-20T09:42:15;33.45;63.18
74661;SHT31;63191;39.566;2.654;2023-08-20T09:44:43;33.52;63.18
74661;SHT31;63191;39.566;2.654;2023-08-20T09:47:12;33.60;63.31
74661;SHT31;63191;39.566;2.654;2023-08-20T09:49:46;33.66;62.86
74661;SHT31;63191;39.566;2.654;2023-08-20T09:52:28;33.58;62.47
74661;SHT31;63191;39.566;2.654;2023-08-20T09:57:35;33.41;62.97
74661;SHT31;63191;39.566;2.654;2023-08-20T10:00:05;33.34;63.04
74661;SHT31;63191;39.566;2.654;2023-08-20T10:02:37;33.27;63.14
74661;SHT31;63191;39.566;2.654;2023-08-20T10:05:05;33.25;63.23
74661;SHT31;63191;39.566;2.654;2023-08-20T10:07:32;33.25;63.15
74661;SHT31;63191;39.566;2.654;2023-08-20T10:10:00;33.25;62.86
74661;SHT31;63191;39.566;2.654;2023-08-20T10:12:30;33.33;63.11
74661;SHT31;63191;39.566;2.654;2023-08-20T10:14:58;33.43;62.63
74661;SHT31;63191;39.566;2.654;2023-08-20T10:17:25;33.56;62.67
74661;SHT31;63191;39.566;2.654;2023-08-20T10:19:52;33.68;62.15
74661;SHT31;63191;39.566;2.654;2023-08-20T10:22:19;33.71;61.57
74661;SHT31;63191;39.566;2.654;2023-08-20T10:24:52;33.72;61.03
74661;SHT31;63191;39.566;2.654;2023-08-20T10:27:28;33.71;60.87
74661;SHT31;63191;39.566;2.654;2023-08-20T10:29:58;33.71;61.16
74661;SHT31;63191;39.566;2.654;2023-08-20T10:35:16;33.81;60.78
74661;SHT31;63191;39.566;2.654;2023-08-20T10:38:00;33.86;60.59
74661;SHT31;63191;39.566;2.654;2023-08-20T10:40:51;33.96;60.40
74661;SHT31;63191;39.566;2.654;2023-08-20T10:43:28;34.07;60.22
74661;SHT31;63191;39.566;2.654;2023-08-20T10:48:55;34.29;60.00
74661;SHT31;63191;39.566;2.654;2023-08-20T10:54:06;34.47;59.28
74661;SHT31;63191;39.566;2.654;2023-08-20T10:59:13;34.57;59.03
74661;SHT31;63191;39.566;2.654;2023-08-20T11:01:50;34.62;59.40
74661;SHT31;63191;39.566;2.654;2023-08-20T11:04:23;34.67;59.11
74661;SHT31;63191;39.566;2.654;2023-08-20T11:06:54;34.72;59.37
74661;SHT31;63191;39.566;2.654;2023-08-20T11:09:22;34.87;59.35
74661;SHT31;63191;39.566;2.654;2023-08-20T11:11:51;35.01;58.60
74661;SHT31;63191;39.566;2.654;2023-08-20T11:14:17;35.16;58.10
74661;SHT31;63191;39.566;2.654;2023-08-20T11:16:45;35.31;57.87
74661;SHT31;63191;39.566;2.654;2023-08-20T11:19:13;35.46;57.63
74661;SHT31;63191;39.566;2.654;2023-08-20T11:21:44;35.51;57.97
74661;SHT31;63191;39.566;2.654;2023-08-20T11:24:11;35.53;58.08
74661;SHT31;63191;39.566;2.654;2023-08-20T11:26:40;35.57;57.91
74661;SHT31;63191;39.566;2.654;2023-08-20T11:29:12;35.50;57.99
74661;SHT31;63191;39.566;2.654;2023-08-20T11:31:46;35.43;57.76
74661;SHT31;63191;39.566;2.654;2023-08-20T11:34:13;35.39;57.76
74661;SHT31;63191;39.566;2.654;2023-08-20T11:36:39;35.32;58.33
74661;SHT31;63191;39.566;2.654;2023-08-20T11:39:06;35.25;58.73
74661;SHT31;63191;39.566;2.654;2023-08-20T11:41:35;35.15;58.86
74661;SHT31;63191;39.566;2.654;2023-08-20T11:44:02;35.10;58.73
74661;SHT31;63191;39.566;2.654;2023-08-20T11:46:28;35.08;58.88
74661;SHT31;63191;39.566;2.654;2023-08-20T11:49:04;35.06;58.99
74661;SHT31;63191;39.566;2.654;2023-08-20T11:54:08;35.08;58.87
74661;SHT31;63191;39.566;2.654;2023-08-20T11:56:42;35.15;58.81
74661;SHT31;63191;39.566;2.654;2023-08-20T11:59:18;35.26;58.53
74661;SHT31;63191;39.566;2.654;2023-08-20T12:01:52;35.32;58.35
74661;SHT31;63191;39.566;2.654;2023-08-20T12:04:29;35.36;58.12
74661;SHT31;63191;39.566;2.654;2023-08-20T12:07:08;35.37;57.49
74661;SHT31;63191;39.566;2.654;2023-08-20T12:09:43;35.36;57.98
74661;SHT31;63191;39.566;2.654;2023-08-20T12:12:09;35.37;57.60
74661;SHT31;63191;39.566;2.654;2023-08-20T12:14:35;35.40;57.77
74661;SHT31;63191;39.566;2.654;2023-08-20T12:17:01;35.48;57.89
74661;SHT31;63191;39.566;2.654;2023-08-20T12:19:28;35.50;57.65
74661;SHT31;63191;39.566;2.654;2023-08-20T12:21:54;35.51;57.38
74661;SHT31;63191;39.566;2.654;2023-08-20T12:24:19;35.59;57.42
74661;SHT31;63191;39.566;2.654;2023-08-20T12:26:45;35.73;57.11
74661;SHT31;63191;39.566;2.654;2023-08-20T12:29:11;35.90;56.79
74661;SHT31;63191;39.566;2.654;2023-08-20T12:31:37;36.13;56.41
74661;SHT31;63191;39.566;2.654;2023-08-20T12:34:03;36.35;56.07
74661;SHT31;63191;39.566;2.654;2023-08-20T12:36:29;36.54;55.27
74661;SHT31;63191;39.566;2.654;2023-08-20T12:38:55;36.65;54.62
74661;SHT31;63191;39.566;2.654;2023-08-20T12:41:21;36.76;54.78
74661;SHT31;63191;39.566;2.654;2023-08-20T12:43:47;36.92;54.82
74661;SHT31;63191;39.566;2.654;2023-08-20T12:46:13;37.10;54.03
74661;SHT31;63191;39.566;2.654;2023-08-20T12:48:39;37.29;53.98
74661;SHT31;63191;39.566;2.654;2023-08-20T12:51:05;37.55;53.84
74661;SHT31;63191;39.566;2.654;2023-08-20T12:53:31;37.80;53.33
74661;SHT31;63191;39.566;2.654;2023-08-20T12:55:57;38.03;52.71
74661;SHT31;63191;39.566;2.654;2023-08-20T12:58:23;38.23;51.86
74661;SHT31;63191;39.566;2.654;2023-08-20T13:00:50;38.48;51.38
74661;SHT31;63191;39.566;2.654;2023-08-20T13:03:16;38.65;50.77
74661;SHT31;63191;39.566;2.654;2023-08-20T13:05:44;38.81;50.14
74661;SHT31;63191;39.566;2.654;2023-08-20T13:08:10;38.96;49.54
74661;SHT31;63191;39.566;2.654;2023-08-20T13:10:40;39.13;49.25
74661;SHT31;63191;39.566;2.654;2023-08-20T13:13:09;39.31;49.02
74661;SHT31;63191;39.566;2.654;2023-08-20T13:15:36;39.40;48.36
74661;SHT31;63191;39.566;2.654;2023-08-20T13:18:02;39.51;48.14
74661;SHT31;63191;39.566;2.654;2023-08-20T13:20:29;39.67;48.07
74661;SHT31;63191;39.566;2.654;2023-08-20T13:22:55;39.91;47.79
74661;SHT31;63191;39.566;2.654;2023-08-20T13:25:20;40.07;46.78
74661;SHT31;63191;39.566;2.654;2023-08-20T13:27:49;40.11;45.74
74661;SHT31;63191;39.566;2.654;2023-08-20T13:30:15;40.13;45.66
74661;SHT31;63191;39.566;2.654;2023-08-20T13:32:41;40.14;45.46
74661;SHT31;63191;39.566;2.654;2023-08-20T13:35:07;40.25;45.69
74661;SHT31;63191;39.566;2.654;2023-08-20T13:37:33;40.37;45.34
74661;SHT31;63191;39.566;2.654;2023-08-20T13:40:00;40.59;45.12
74661;SHT31;63191;39.566;2.654;2023-08-20T13:42:26;40.82;43.82
74661;SHT31;63191;39.566;2.654;2023-08-20T13:44:52;41.14;43.25
74661;SHT31;63191;39.566;2.654;2023-08-20T13:47:17;41.52;43.00
74661;SHT31;63191;39.566;2.654;2023-08-20T13:49:43;41.86;42.82
74661;SHT31;63191;39.566;2.654;2023-08-20T13:52:09;42.30;42.70
74661;SHT31;63191;39.566;2.654;2023-08-20T13:54:35;42.70;41.62
74661;SHT31;63191;39.566;2.654;2023-08-20T13:57:02;43.05;40.63
74661;SHT31;63191;39.566;2.654;2023-08-20T13:59:29;43.39;39.48
74661;SHT31;63191;39.566;2.654;2023-08-20T14:01:56;43.73;38.44
74661;SHT31;63191;39.566;2.654;2023-08-20T14:04:22;44.13;37.93
74661;SHT31;63191;39.566;2.654;2023-08-20T14:06:47;44.53;38.09
74661;SHT31;63191;39.566;2.654;2023-08-20T14:09:13;44.97;37.70
74661;SHT31;63191;39.566;2.654;2023-08-20T14:11:39;45.51;37.50
74661;SHT31;63191;39.566;2.654;2023-08-20T14:14:05;46.07;37.20
74661;SHT31;63191;39.566;2.654;2023-08-20T14:16:31;46.57;35.95
74661;SHT31;63191;39.566;2.654;2023-08-20T14:18:57;46.94;34.82
74661;SHT31;63191;39.566;2.654;2023-08-20T14:21:22;47.32;34.57
74661;SHT31;63191;39.566;2.654;2023-08-20T14:23:48;47.69;33.52
74661;SHT31;63191;39.566;2.654;2023-08-20T14:26:14;48.06;33.01
74661;SHT31;63191;39.566;2.654;2023-08-20T14:28:40;48.51;32.46
74661;SHT31;63191;39.566;2.654;2023-08-20T14:31:08;48.96;32.79
74661;SHT31;63191;39.566;2.654;2023-08-20T14:33:34;49.39;32.62
74661;SHT31;63191;39.566;2.654;2023-08-20T14:36:00;49.79;32.09
74661;SHT31;63191;39.566;2.654;2023-08-20T14:38:27;50.17;30.93
74661;SHT31;63191;39.566;2.654;2023-08-20T14:40:58;50.32;29.59
74661;SHT31;63191;39.566;2.654;2023-08-20T14:43:26;50.31;29.09
74661;SHT31;63191;39.566;2.654;2023-08-20T14:45:53;50.38;29.48
74661;SHT31;63191;39.566;2.654;2023-08-20T14:48:19;50.60;29.07
74661;SHT31;63191;39.566;2.654;2023-08-20T14:50:45;50.92;29.16
74661;SHT31;63191;39.566;2.654;2023-08-20T14:53:11;51.23;28.74
74661;SHT31;63191;39.566;2.654;2023-08-20T14:55:36;51.42;28.25
74661;SHT31;63191;39.566;2.654;2023-08-20T14:58:02;51.58;27.89
74661;SHT31;63191;39.566;2.654;2023-08-20T15:00:31;51.57;26.99
74661;SHT31;63191;39.566;2.654;2023-08-20T15:02:57;51.58;27.09
74661;SHT31;63191;39.566;2.654;2023-08-20T15:05:23;51.58;26.91
74661;SHT31;63191;39.566;2.654;2023-08-20T15:07:48;51.63;26.93
74661;SHT31;63191;39.566;2.654;2023-08-20T15:10:14;51.80;26.84
74661;SHT31;63191;39.566;2.654;2023-08-20T15:12:40;51.95;26.70
74661;SHT31;63191;39.566;2.654;2023-08-20T15:15:06;52.13;26.63
74661;SHT31;63191;39.566;2.654;2023-08-20T15:17:35;52.25;26.30
74661;SHT31;63191;39.566;2.654;2023-08-20T15:20:01;52.25;26.09
74661;SHT31;63191;39.566;2.654;2023-08-20T15:22:33;52.29;26.07
74661;SHT31;63191;39.566;2.654;2023-08-20T15:24:59;52.29;25.84
74661;SHT31;63191;39.566;2.654;2023-08-20T15:27:25;52.17;25.81
74661;SHT31;63191;39.566;2.654;2023-08-20T15:29:51;52.02;25.94
74661;SHT31;63191;39.566;2.654;2023-08-20T15:32:17;51.77;25.35
74661;SHT31;63191;39.566;2.654;2023-08-20T15:34:43;51.54;25.85
74661;SHT31;63191;39.566;2.654;2023-08-20T15:37:09;51.56;26.22
74661;SHT31;63191;39.566;2.654;2023-08-20T15:39:35;51.77;26.24
74661;SHT31;63191;39.566;2.654;2023-08-20T15:42:01;52.05;26.20
74661;SHT31;63191;39.566;2.654;2023-08-20T15:44:27;51.96;25.45
74661;SHT31;63191;39.566;2.654;2023-08-20T15:46:53;51.86;26.04
74661;SHT31;63191;39.566;2.654;2023-08-20T15:49:19;51.82;26.05
74661;SHT31;63191;39.566;2.654;2023-08-20T15:51:44;51.84;26.46
74661;SHT31;63191;39.566;2.654;2023-08-20T15:54:11;52.05;26.24
74661;SHT31;63191;39.566;2.654;2023-08-20T15:56:37;52.20;25.91